sensor_id;sensor_type;location;lat;lon;timestamp;temperature;humidity
316;DHT22;14128;48.686;9.738;2023-01-25T00:01:54;2.60;1.40
316;DHT22;14128;48.686;9.738;2023-01-25T00:04:22;2.70;1.40
316;DHT22;14128;48.686;9.738;2023-01-25T00:06:50;2.70;1.40
316;DHT22;14128;48.686;9.738;2023-01-25T00:09:17;2.70;1.40
316;DHT22;14128;48.686;9.738;2023-01-25T00:11:44;2.70;1.40
316;DHT22;14128;48.686;9.738;2023-01-25T00:14:13;2.70;1.40
316;DHT22;14128;48.686;9.738;2023-01-25T00:16:40;2.70;1.40
316;DHT22;14128;48.686;9.738;2023-01-25T00:19:08;2.70;1.40
316;DHT22;14128;48.686;9.738;2023-01-25T00:21:36;2.70;1.40
316;DHT22;14128;48.686;9.738;2023-01-25T00:24:04;2.80;1.40
316;DHT22;14128;48.686;9.738;2023-01-25T00:26:32;2.70;1.40
316;DHT22;14128;48.686;9.738;2023-01-25T00:28:59;2.80;1.40
316;DHT22;14128;48.686;9.738;2023-01-25T00:31:35;2.80;1.40
316;DHT22;14128;48.686;9.738;2023-01-25T00:34:12;2.80;1.40
316;DHT22;14128;48.686;9.738;2023-01-25T00:36:56;2.90;1.40
316;DHT22;14128;48.686;9.738;2023-01-25T00:39:24;2.80;1.40
316;DHT22;14128;48.686;9.738;2023-01-25T00:41:52;2.80;1.40
316;DHT22;14128;48.686;9.738;2023-01-25T00:44:19;2.90;1.40
316;DHT22;14128;48.686;9.738;2023-01-25T00:46:46;2.90;1.40
316;DHT22;14128;48.686;9.738;2023-01-25T00:49:19;2.90;1.40
316;DHT22;14128;48.686;9.738;2023-01-25T00:51:46;2.90;1.40
316;DHT22;14128;48.686;9.738;2023-01-25T00:54:14;2.90;1.40
316;DHT22;14128;48.686;9.738;2023-01-25T00:56:41;2.90;1.40
316;DHT22;14128;48.686;9.738;2023-01-25T00:59:08;2.80;1.40
316;DHT22;14128;48.686;9.738;2023-01-25T01:01:35;2.80;1.40
316;DHT22;14128;48.686;9.738;2023-01-25T01:04:02;2.90;1.40
316;DHT22;14128;48.686;9.738;2023-01-25T01:06:29;2.80;1.40
316;DHT22;14128;48.686;9.738;2023-01-25T01:08:56;2.80;1.40
316;DHT22;14128;48.686;9.738;2023-01-25T01:11:24;2.80;1.40
316;DHT22;14128;48.686;9.738;2023-01-25T01:13:51;2.80;1.40
316;DHT22;14128;48.686;9.738;2023-01-25T01:16:18;2.80;1.40
316;DHT22;14128;48.686;9.738;2023-01-25T01:18:45;2.80;1.40
316;DHT22;14128;48.686;9.738;2023-01-25T01:21:12;2.80;1.40
316;DHT22;14128;48.686;9.738;2023-01-25T01:23:40;2.80;1.40
316;DHT22;14128;48.686;9.738;2023-01-25T01:26:09;2.80;1.40
316;DHT22;14128;48.686;9.738;2023-01-25T01:28:38;2.80;1.40
316;DHT22;14128;48.686;9.738;2023-01-25T01:31:07;2.80;1.40
316;DHT22;14128;48.686;9.738;2023-01-25T01:33:36;2.80;1.40
316;DHT22;14128;48.686;9.738;2023-01-25T01:36:06;2.80;1.40
316;DHT22;14128;48.686;9.738;2023-01-25T01:38:33;2.80;1.40
316;DHT22;14128;48.686;9.738;2023-01-25T01:41:00;2.80;1.40
316;DHT22;14128;48.686;9.738;2023-01-25T01:43:27;2.80;1.40
316;DHT22;14128;48.686;9.738;2023-01-25T01:45:58;2.80;1.40
316;DHT22;14128;48.686;9.738;2023-01-25T01:48:32;2.80;1.40
316;DHT22;14128;48.686;9.738;2023-01-25T01:51:02;2.80;1.40
316;DHT22;14128;48.686;9.738;2023-01-25T01:53:31;2.80;1.40
316;DHT22;14128;48.686;9.738;2023-01-25T01:56:01;2.80;1.40
316;DHT22;14128;48.686;9.738;2023-01-25T01:58:29;2.80;1.40
316;DHT22;14128;48.686;9.738;2023-01-25T02:00:58;2.70;1.40
316;DHT22;14128;48.686;9.738;2023-01-25T02:03:25;2.80;1.40
316;DHT22;14128;48.686;9.738;2023-01-25T02:05:55;2.80;1.40
316;DHT22;14128;48.686;9.738;2023-01-25T02:08:24;2.70;1.40
316;DHT22;14128;48.686;9.738;2023-01-25T02:10:52;2.70;1.40
316;DHT22;14128;48.686;9.738;2023-01-25T02:13:19;2.70;1.40
316;DHT22;14128;48.686;9.738;2023-01-25T02:15:48;2.70;1.40
316;DHT22;14128;48.686;9.738;2023-01-25T02:18:17;2.70;1.40
316;DHT22;14128;48.686;9.738;2023-01-25T02:20:45;2.70;1.40
316;DHT22;14128;48.686;9.738;2023-01-25T02:23:20;2.70;1.40
316;DHT22;14128;48.686;9.738;2023-01-25T02:25:53;2.70;1.40
316;DHT22;14128;48.686;9.738;2023-01-25T02:28:23;2.70;1.40
316;DHT22;14128;48.686;9.738;2023-01-25T02:30:51;2.70;1.40
316;DHT22;14128;48.686;9.738;2023-01-25T02:33:18;2.70;1.40
316;DHT22;14128;48.686;9.738;2023-01-25T02:35:48;2.70;1.40
316;DHT22;14128;48.686;9.738;2023-01-25T02:38:17;2.70;1.40
316;DHT22;14128;48.686;9.738;2023-01-25T02:40:47;2.70;1.40
316;DHT22;14128;48.686;9.738;2023-01-25T02:43:16;2.70;1.40
316;DHT22;14128;48.686;9.738;2023-01-25T02:45:46;2.70;1.40
316;DHT22;14128;48.686;9.738;2023-01-25T02:48:15;2.70;1.40
316;DHT22;14128;48.686;9.738;2023-01-25T02:50:42;2.70;1.40
316;DHT22;14128;48.686;9.738;2023-01-25T02:53:09;2.70;1.40
316;DHT22;14128;48.686;9.738;2023-01-25T02:55:36;2.60;1.40
316;DHT22;14128;48.686;9.738;2023-01-25T02:58:03;2.60;1.40
316;DHT22;14128;48.686;9.738;2023-01-25T03:00:31;2.60;1.40
316;DHT22;14128;48.686;9.738;2023-01-25T03:02:58;2.60;1.40
316;DHT22;14128;48.686;9.738;2023-01-25T03:05:25;2.60;1.40
316;DHT22;14128;48.686;9.738;2023-01-25T03:07:51;2.70;1.40
316;DHT22;14128;48.686;9.738;2023-01-25T03:10:18;2.70;1.40
316;DHT22;14128;48.686;9.738;2023-01-25T03:12:45;2.70;1.40
316;DHT22;14128;48.686;9.738;2023-01-25T03:15:12;2.60;1.40
316;DHT22;14128;48.686;9.738;2023-01-25T03:17:40;2.60;1.40
316;DHT22;14128;48.686;9.738;2023-01-25T03:20:08;2.60;1.40
316;DHT22;14128;48.686;9.738;2023-01-25T03:22:35;2.60;1.40
316;DHT22;14128;48.686;9.738;2023-01-25T03:25:01;2.60;1.40
316;DHT22;14128;48.686;9.738;2023-01-25T03:27:29;2.60;1.40
316;DHT22;14128;48.686;9.738;2023-01-25T03:29:56;2.60;1.40
316;DHT22;14128;48.686;9.738;2023-01-25T03:32:22;2.60;1.40
316;DHT22;14128;48.686;9.738;2023-01-25T03:34:51;2.60;1.40
316;DHT22;14128;48.686;9.738;2023-01-25T03:37:17;2.60;1.40
316;DHT22;14128;48.686;9.738;2023-01-25T03:39:44;2.60;1.40
316;DHT22;14128;48.686;9.738;2023-01-25T03:42:11;2.60;1.40
316;DHT22;14128;48.686;9.738;2023-01-25T03:44:38;2.60;1.40
316;DHT22;14128;48.686;9.738;2023-01-25T03:47:05;2.60;1.40
316;DHT22;14128;48.686;9.738;2023-01-25T03:49:32;2.60;1.40
316;DHT22;14128;48.686;9.738;2023-01-25T03:52:00;2.50;1.40
316;DHT22;14128;48.686;9.738;2023-01-25T03:54:27;2.50;1.40
316;DHT22;14128;48.686;9.738;2023-01-25T03:56:53;2.50;1.40
316;DHT22;14128;48.686;9.738;2023-01-25T03:59:20;2.50;1.40
316;DHT22;14128;48.686;9.738;2023-01-25T04:01:47;2.50;1.40
316;DHT22;14128;48.686;9.738;2023-01-25T04:04:14;2.50;1.40
316;DHT22;14128;48.686;9.738;2023-01-25T04:06:41;2.50;1.40
316;DHT22;14128;48.686;9.738;2023-01-25T04:09:09;2.50;1.40
316;DHT22;14128;48.686;9.738;2023-01-25T04:11:36;2.50;1.40
316;DHT22;14128;48.686;9.738;2023-01-25T04:14:02;2.50;1.40
316;DHT22;14128;48.686;9.738;2023-01-25T04:16:29;2.50;1.40
316;DHT22;14128;48.686;9.738;2023-01-25T04:18:56;2.50;1.40
316;DHT22;14128;48.686;9.738;2023-01-25T04:21:23;2.40;1.40
316;DHT22;14128;48.686;9.738;2023-01-25T04:23:50;2.40;1.40
316;DHT22;14128;48.686;9.738;2023-01-25T04:26:18;2.40;1.40
316;DHT22;14128;48.686;9.738;2023-01-25T04:28:45;2.40;1.40
316;DHT22;14128;48.686;9.738;2023-01-25T04:31:12;2.40;1.40
316;DHT22;14128;48.686;9.738;2023-01-25T04:33:38;2.40;1.40
316;DHT22;14128;48.686;9.738;2023-01-25T04:36:06;2.40;1.40
316;DHT22;14128;48.686;9.738;2023-01-25T04:38:33;2.40;1.40
316;DHT22;14128;48.686;9.738;2023-01-25T04:41:00;2.40;1.40
316;DHT22;14128;48.686;9.738;2023-01-25T04:43:30;2.40;1.40
316;DHT22;14128;48.686;9.738;2023-01-25T04:45:56;2.40;1.40
316;DHT22;14128;48.686;9.738;2023-01-25T04:48:23;2.40;1.40
316;DHT22;14128;48.686;9.738;2023-01-25T04:50:50;2.40;1.40
316;DHT22;14128;48.686;9.738;2023-01-25T04:53:17;2.40;1.40
316;DHT22;14128;48.686;9.738;2023-01-25T04:55:44;2.30;1.40
316;DHT22;14128;48.686;9.738;2023-01-25T04:58:12;2.40;1.40
316;DHT22;14128;48.686;9.738;2023-01-25T05:00:41;2.30;1.40
316;DHT22;14128;48.686;9.738;2023-01-25T05:03:07;2.40;1.40
316;DHT22;14128;48.686;9.738;2023-01-25T05:05:34;2.40;1.40
316;DHT22;14128;48.686;9.738;2023-01-25T05:08:01;2.30;1.40
316;DHT22;14128;48.686;9.738;2023-01-25T05:10:28;2.30;1.40
316;DHT22;14128;48.686;9.738;2023-01-25T05:12:55;2.30;1.40
316;DHT22;14128;48.686;9.738;2023-01-25T05:15:21;2.30;1.40
316;DHT22;14128;48.686;9.738;2023-01-25T05:17:50;2.30;1.40
316;DHT22;14128;48.686;9.738;2023-01-25T05:20:16;2.30;1.40
316;DHT22;14128;48.686;9.738;2023-01-25T05:22:43;2.30;1.40
316;DHT22;14128;48.686;9.738;2023-01-25T05:25:10;2.30;1.40
316;DHT22;14128;48.686;9.738;2023-01-25T05:27:51;2.30;1.40
316;DHT22;14128;48.686;9.738;2023-01-25T05:30:18;2.30;1.40
316;DHT22;14128;48.686;9.738;2023-01-25T05:32:44;2.30;1.40
316;DHT22;14128;48.686;9.738;2023-01-25T05:35:13;2.30;1.40
316;DHT22;14128;48.686;9.738;2023-01-25T05:37:40;2.30;1.40
316;DHT22;14128;48.686;9.738;2023-01-25T05:40:08;2.30;1.40
316;DHT22;14128;48.686;9.738;2023-01-25T05:42:35;2.20;1.40
316;DHT22;14128;48.686;9.738;2023-01-25T05:45:02;2.30;1.40
316;DHT22;14128;48.686;9.738;2023-01-25T05:47:29;2.30;1.40
316;DHT22;14128;48.686;9.738;2023-01-25T05:49:55;2.30;1.40
316;DHT22;14128;48.686;9.738;2023-01-25T05:52:24;2.30;1.40
316;DHT22;14128;48.686;9.738;2023-01-25T05:54:50;2.20;1.40
316;DHT22;14128;48.686;9.738;2023-01-25T05:57:17;2.30;1.40
316;DHT22;14128;48.686;9.738;2023-01-25T05:59:44;2.30;1.40
316;DHT22;14128;48.686;9.738;2023-01-25T06:02:11;2.30;1.40
316;DHT22;14128;48.686;9.738;2023-01-25T06:04:38;2.30;1.40
316;DHT22;14128;48.686;9.738;2023-01-25T06:07:04;2.30;1.40
316;DHT22;14128;48.686;9.738;2023-01-25T06:09:32;2.30;1.40
316;DHT22;14128;48.686;9.738;2023-01-25T06:11:59;2.20;1.40
316;DHT22;14128;48.686;9.738;2023-01-25T06:14:28;2.20;1.40
316;DHT22;14128;48.686;9.738;2023-01-25T06:16:55;2.30;1.40
316;DHT22;14128;48.686;9.738;2023-01-25T06:19:21;2.30;1.40
316;DHT22;14128;48.686;9.738;2023-01-25T06:21:49;2.20;1.40
316;DHT22;14128;48.686;9.738;2023-01-25T06:24:16;2.20;1.40
316;DHT22;14128;48.686;9.738;2023-01-25T06:26:44;2.20;1.40
316;DHT22;14128;48.686;9.738;2023-01-25T06:29:11;2.20;1.40
316;DHT22;14128;48.686;9.738;2023-01-25T06:31:37;2.20;1.40
316;DHT22;14128;48.686;9.738;2023-01-25T06:34:04;2.20;1.40
316;DHT22;14128;48.686;9.738;2023-01-25T06:36:33;2.20;1.40
316;DHT22;14128;48.686;9.738;2023-01-25T06:39:00;2.20;1.40
316;DHT22;14128;48.686;9.738;2023-01-25T06:41:27;2.20;1.40
316;DHT22;14128;48.686;9.738;2023-01-25T06:43:55;2.20;1.40
316;DHT22;14128;48.686;9.738;2023-01-25T06:46:22;2.20;1.40
316;DHT22;14128;48.686;9.738;2023-01-25T06:48:49;2.20;1.40
316;DHT22;14128;48.686;9.738;2023-01-25T06:51:15;2.20;1.40
316;DHT22;14128;48.686;9.738;2023-01-25T06:53:44;2.10;1.40
316;DHT22;14128;48.686;9.738;2023-01-25T06:56:13;2.20;1.40
316;DHT22;14128;48.686;9.738;2023-01-25T06:58:40;2.10;1.40
316;DHT22;14128;48.686;9.738;2023-01-25T07:01:12;2.10;1.40
316;DHT22;14128;48.686;9.738;2023-01-25T07:03:39;2.10;1.40
316;DHT22;14128;48.686;9.738;2023-01-25T07:06:07;2.10;1.40
316;DHT22;14128;48.686;9.738;2023-01-25T07:08:35;2.10;1.40
316;DHT22;14128;48.686;9.738;2023-01-25T07:11:04;2.10;1.40
316;DHT22;14128;48.686;9.738;2023-01-25T07:13:32;2.10;1.40
316;DHT22;14128;48.686;9.738;2023-01-25T07:16:01;2.10;1.40
316;DHT22;14128;48.686;9.738;2023-01-25T07:18:30;2.10;1.40
316;DHT22;14128;48.686;9.738;2023-01-25T07:21:02;2.10;1.40
316;DHT22;14128;48.686;9.738;2023-01-25T07:23:30;2.10;1.40
316;DHT22;14128;48.686;9.738;2023-01-25T07:25:59;2.10;1.40
316;DHT22;14128;48.686;9.738;2023-01-25T07:28:26;2.10;1.40
316;DHT22;14128;48.686;9.738;2023-01-25T07:30:53;2.10;1.40
316;DHT22;14128;48.686;9.738;2023-01-25T07:33:20;2.10;1.40
316;DHT22;14128;48.686;9.738;2023-01-25T07:35:48;2.10;1.40
316;DHT22;14128;48.686;9.738;2023-01-25T07:38:15;2.10;1.40
316;DHT22;14128;48.686;9.738;2023-01-25T07:40:42;2.10;1.40
316;DHT22;14128;48.686;9.738;2023-01-25T07:43:09;2.10;1.40
316;DHT22;14128;48.686;9.738;2023-01-25T07:45:36;2.10;1.40
316;DHT22;14128;48.686;9.738;2023-01-25T07:48:07;2.20;1.40
316;DHT22;14128;48.686;9.738;2023-01-25T07:50:35;2.10;1.40
316;DHT22;14128;48.686;9.738;2023-01-25T07:53:05;2.20;1.40
316;DHT22;14128;48.686;9.738;2023-01-25T07:55:32;2.10;1.40
316;DHT22;14128;48.686;9.738;2023-01-25T07:57:59;2.20;1.40
316;DHT22;14128;48.686;9.738;2023-01-25T08:00:26;2.20;1.40
316;DHT22;14128;48.686;9.738;2023-01-25T08:02:53;2.10;1.40
316;DHT22;14128;48.686;9.738;2023-01-25T08:05:20;2.20;1.40
316;DHT22;14128;48.686;9.738;2023-01-25T08:07:47;2.20;1.40
316;DHT22;14128;48.686;9.738;2023-01-25T08:10:16;2.20;1.40
316;DHT22;14128;48.686;9.738;2023-01-25T08:12:44;2.20;1.40
316;DHT22;14128;48.686;9.738;2023-01-25T08:15:11;2.30;1.40
316;DHT22;14128;48.686;9.738;2023-01-25T08:17:38;2.30;1.40
316;DHT22;14128;48.686;9.738;2023-01-25T08:20:06;2.30;1.40
316;DHT22;14128;48.686;9.738;2023-01-25T08:22:33;2.30;1.40
316;DHT22;14128;48.686;9.738;2023-01-25T08:25:00;2.40;1.40
316;DHT22;14128;48.686;9.738;2023-01-25T08:27:28;2.40;1.40
316;DHT22;14128;48.686;9.738;2023-01-25T08:29:55;2.40;1.40
316;DHT22;14128;48.686;9.738;2023-01-25T08:32:22;2.40;1.40
316;DHT22;14128;48.686;9.738;2023-01-25T08:34:49;2.50;1.40
316;DHT22;14128;48.686;9.738;2023-01-25T08:37:16;2.50;1.40
316;DHT22;14128;48.686;9.738;2023-01-25T08:39:42;2.50;1.40
316;DHT22;14128;48.686;9.738;2023-01-25T08:42:09;2.50;1.40
316;DHT22;14128;48.686;9.738;2023-01-25T08:44:37;2.50;1.40
316;DHT22;14128;48.686;9.738;2023-01-25T08:47:04;2.50;1.40
316;DHT22;14128;48.686;9.738;2023-01-25T08:49:31;2.50;1.40
316;DHT22;14128;48.686;9.738;2023-01-25T08:51:59;2.50;1.40
316;DHT22;14128;48.686;9.738;2023-01-25T08:54:26;2.60;1.40
316;DHT22;14128;48.686;9.738;2023-01-25T08:56:52;2.60;1.40
316;DHT22;14128;48.686;9.738;2023-01-25T08:59:19;2.60;1.40
316;DHT22;14128;48.686;9.738;2023-01-25T09:01:48;2.60;1.40
316;DHT22;14128;48.686;9.738;2023-01-25T09:04:14;2.60;1.40
316;DHT22;14128;48.686;9.738;2023-01-25T09:06:41;2.70;1.40
316;DHT22;14128;48.686;9.738;2023-01-25T09:09:08;2.70;1.40
316;DHT22;14128;48.686;9.738;2023-01-25T09:11:35;2.80;1.40
316;DHT22;14128;48.686;9.738;2023-01-25T09:14:03;2.80;1.40
316;DHT22;14128;48.686;9.738;2023-01-25T09:16:29;2.80;1.40
316;DHT22;14128;48.686;9.738;2023-01-25T09:19:00;2.80;1.40
316;DHT22;14128;48.686;9.738;2023-01-25T09:21:28;2.90;1.40
316;DHT22;14128;48.686;9.738;2023-01-25T09:23:55;2.90;1.40
316;DHT22;14128;48.686;9.738;2023-01-25T09:26:23;2.90;1.40
316;DHT22;14128;48.686;9.738;2023-01-25T09:28:51;3.00;1.40
316;DHT22;14128;48.686;9.738;2023-01-25T09:31:19;3.10;1.40
316;DHT22;14128;48.686;9.738;2023-01-25T09:33:46;3.10;1.40
316;DHT22;14128;48.686;9.738;2023-01-25T09:36:15;3.00;1.40
316;DHT22;14128;48.686;9.738;2023-01-25T09:38:41;3.10;1.40
316;DHT22;14128;48.686;9.738;2023-01-25T09:41:31;3.10;1.40
316;DHT22;14128;48.686;9.738;2023-01-25T09:44:21;3.20;1.40
316;DHT22;14128;48.686;9.738;2023-01-25T09:46:53;3.20;1.40
316;DHT22;14128;48.686;9.738;2023-01-25T09:49:34;3.30;1.40
316;DHT22;14128;48.686;9.738;2023-01-25T09:52:19;3.30;1.40
316;DHT22;14128;48.686;9.738;2023-01-25T09:54:52;3.30;1.40
316;DHT22;14128;48.686;9.738;2023-01-25T09:57:21;3.40;1.40
316;DHT22;14128;48.686;9.738;2023-01-25T09:59:51;3.40;1.40
316;DHT22;14128;48.686;9.738;2023-01-25T10:02:32;3.50;1.40
316;DHT22;14128;48.686;9.738;2023-01-25T10:05:06;3.50;1.40
316;DHT22;14128;48.686;9.738;2023-01-25T10:07:47;3.50;1.40
316;DHT22;14128;48.686;9.738;2023-01-25T10:10:17;3.60;1.40
316;DHT22;14128;48.686;9.738;2023-01-25T10:12:46;3.60;1.40
316;DHT22;14128;48.686;9.738;2023-01-25T10:15:18;3.60;1.40
316;DHT22;14128;48.686;9.738;2023-01-25T10:17:47;3.50;1.40
316;DHT22;14128;48.686;9.738;2023-01-25T10:20:27;3.60;1.40
316;DHT22;14128;48.686;9.738;2023-01-25T10:23:26;3.60;1.40
316;DHT22;14128;48.686;9.738;2023-01-25T10:25:58;3.50;1.40
316;DHT22;14128;48.686;9.738;2023-01-25T10:28:38;3.60;1.40
316;DHT22;14128;48.686;9.738;2023-01-25T10:31:14;3.70;1.40
316;DHT22;14128;48.686;9.738;2023-01-25T10:33:44;3.70;1.40
316;DHT22;14128;48.686;9.738;2023-01-25T10:36:13;3.70;1.40
316;DHT22;14128;48.686;9.738;2023-01-25T10:38:43;3.80;1.40
316;DHT22;14128;48.686;9.738;2023-01-25T10:41:15;3.80;1.40
316;DHT22;14128;48.686;9.738;2023-01-25T10:43:44;3.80;1.40
316;DHT22;14128;48.686;9.738;2023-01-25T10:46:18;3.70;1.40
316;DHT22;14128;48.686;9.738;2023-01-25T10:48:45;3.70;1.40
316;DHT22;14128;48.686;9.738;2023-01-25T10:51:28;3.80;1.40
316;DHT22;14128;48.686;9.738;2023-01-25T10:54:01;3.80;1.40
316;DHT22;14128;48.686;9.738;2023-01-25T10:56:28;3.80;1.40
316;DHT22;14128;48.686;9.738;2023-01-25T10:59:06;3.90;1.40
316;DHT22;14128;48.686;9.738;2023-01-25T11:01:35;3.90;1.40
316;DHT22;14128;48.686;9.738;2023-01-25T11:04:02;3.80;1.40
316;DHT22;14128;48.686;9.738;2023-01-25T11:06:47;3.80;1.40
316;DHT22;14128;48.686;9.738;2023-01-25T11:09:38;3.80;1.40
316;DHT22;14128;48.686;9.738;2023-01-25T11:12:16;3.80;1.40
316;DHT22;14128;48.686;9.738;2023-01-25T11:14:44;3.80;1.40
316;DHT22;14128;48.686;9.738;2023-01-25T11:17:23;3.80;1.40
316;DHT22;14128;48.686;9.738;2023-01-25T11:20:06;3.80;1.40
316;DHT22;14128;48.686;9.738;2023-01-25T11:22:33;3.90;1.40
316;DHT22;14128;48.686;9.738;2023-01-25T11:25:26;3.90;1.40
316;DHT22;14128;48.686;9.738;2023-01-25T11:28:09;4.00;1.40
316;DHT22;14128;48.686;9.738;2023-01-25T11:30:36;4.00;1.40
316;DHT22;14128;48.686;9.738;2023-01-25T11:33:08;4.10;1.40
316;DHT22;14128;48.686;9.738;2023-01-25T11:35:36;4.10;1.40
316;DHT22;14128;48.686;9.738;2023-01-25T11:38:11;4.10;1.40
316;DHT22;14128;48.686;9.738;2023-01-25T11:40:44;4.20;1.40
316;DHT22;14128;48.686;9.738;2023-01-25T11:43:23;4.20;1.40
316;DHT22;14128;48.686;9.738;2023-01-25T11:46:05;4.10;1.40
316;DHT22;14128;48.686;9.738;2023-01-25T11:51:57;4.10;1.40
316;DHT22;14128;48.686;9.738;2023-01-25T11:54:44;4.10;1.40
316;DHT22;14128;48.686;9.738;2023-01-25T12:00:27;4.10;1.40
316;DHT22;14128;48.686;9.738;2023-01-25T12:05:59;4.00;1.40
316;DHT22;14128;48.686;9.738;2023-01-25T12:08:38;3.90;1.40
316;DHT22;14128;48.686;9.738;2023-01-25T12:11:12;3.90;1.40
316;DHT22;14128;48.686;9.738;2023-01-25T12:13:46;3.90;1.40
316;DHT22;14128;48.686;9.738;2023-01-25T12:16:30;3.90;1.40
316;DHT22;14128;48.686;9.738;2023-01-25T12:19:26;4.00;1.40
316;DHT22;14128;48.686;9.738;2023-01-25T12:22:04;3.90;1.40
316;DHT22;14128;48.686;9.738;2023-01-25T12:24:39;3.90;1.40
316;DHT22;14128;48.686;9.738;2023-01-25T12:27:22;3.90;1.40
316;DHT22;14128;48.686;9.738;2023-01-25T12:29:55;3.80;1.40
316;DHT22;14128;48.686;9.738;2023-01-25T12:32:27;3.70;1.40
316;DHT22;14128;48.686;9.738;2023-01-25T12:35:04;3.70;1.40
316;DHT22;14128;48.686;9.738;2023-01-25T12:37:40;3.80;1.40
316;DHT22;14128;48.686;9.738;2023-01-25T12:40:11;3.70;1.40
316;DHT22;14128;48.686;9.738;2023-01-25T12:42:43;3.70;1.40
316;DHT22;14128;48.686;9.738;2023-01-25T12:45:15;3.80;1.40
316;DHT22;14128;48.686;9.738;2023-01-25T12:47:46;3.70;1.40
316;DHT22;14128;48.686;9.738;2023-01-25T12:50:17;3.70;1.40
316;DHT22;14128;48.686;9.738;2023-01-25T12:52:48;3.80;1.40
316;DHT22;14128;48.686;9.738;2023-01-25T12:55:17;3.70;1.40
316;DHT22;14128;48.686;9.738;2023-01-25T12:57:50;3.70;1.40
316;DHT22;14128;48.686;9.738;2023-01-25T13:00:28;3.70;1.40
316;DHT22;14128;48.686;9.738;2023-01-25T13:03:06;3.70;1.40
316;DHT22;14128;48.686;9.738;2023-01-25T13:05:41;3.80;1.40
316;DHT22;14128;48.686;9.738;2023-01-25T13:08:20;3.90;1.40
316;DHT22;14128;48.686;9.738;2023-01-25T13:10:52;3.90;1.40
316;DHT22;14128;48.686;9.738;2023-01-25T13:13:22;3.90;1.40
316;DHT22;14128;48.686;9.738;2023-01-25T13:15:51;4.00;1.40
316;DHT22;14128;48.686;9.738;2023-01-25T13:18:37;4.00;1.40
316;DHT22;14128;48.686;9.738;2023-01-25T13:21:37;4.00;1.40
316;DHT22;14128;48.686;9.738;2023-01-25T13:24:20;4.00;1.40
316;DHT22;14128;48.686;9.738;2023-01-25T13:27:02;4.00;1.40
316;DHT22;14128;48.686;9.738;2023-01-25T13:29:56;4.00;1.40
316;DHT22;14128;48.686;9.738;2023-01-25T13:32:59;3.90;1.40
316;DHT22;14128;48.686;9.738;2023-01-25T13:35:42;3.90;1.40
316;DHT22;14128;48.686;9.738;2023-01-25T13:38:28;3.90;1.40
316;DHT22;14128;48.686;9.738;2023-01-25T13:41:14;3.90;1.40
316;DHT22;14128;48.686;9.738;2023-01-25T13:43:44;3.80;1.40
316;DHT22;14128;48.686;9.738;2023-01-25T13:46:15;3.80;1.40
316;DHT22;14128;48.686;9.738;2023-01-25T13:48:56;3.70;1.40
316;DHT22;14128;48.686;9.738;2023-01-25T13:51:26;3.70;1.40
316;DHT22;14128;48.686;9.738;2023-01-25T13:53:57;3.60;1.40
316;DHT22;14128;48.686;9.738;2023-01-25T13:56:27;3.60;1.40
316;DHT22;14128;48.686;9.738;2023-01-25T13:58:54;3.50;1.40
316;DHT22;14128;48.686;9.738;2023-01-25T14:01:21;3.50;1.40
316;DHT22;14128;48.686;9.738;2023-01-25T14:03:51;3.50;1.40
316;DHT22;14128;48.686;9.738;2023-01-25T14:06:22;3.50;1.40
316;DHT22;14128;48.686;9.738;2023-01-25T14:08:50;3.40;1.40
316;DHT22;14128;48.686;9.738;2023-01-25T14:11:19;3.30;1.40
316;DHT22;14128;48.686;9.738;2023-01-25T14:14:00;3.30;1.40
316;DHT22;14128;48.686;9.738;2023-01-25T14:16:28;3.20;1.40
316;DHT22;14128;48.686;9.738;2023-01-25T14:21:39;3.10;1.40
316;DHT22;14128;48.686;9.738;2023-01-25T14:24:09;3.10;1.40
316;DHT22;14128;48.686;9.738;2023-01-25T14:26:37;3.00;1.40
316;DHT22;14128;48.686;9.738;2023-01-25T14:29:15;3.00;1.40
316;DHT22;14128;48.686;9.738;2023-01-25T14:31:48;3.00;1.40
316;DHT22;14128;48.686;9.738;2023-01-25T14:34:18;3.00;1.40
316;DHT22;14128;48.686;9.738;2023-01-25T14:36:46;3.00;1.40
316;DHT22;14128;48.686;9.738;2023-01-25T14:39:19;2.90;1.40
316;DHT22;14128;48.686;9.738;2023-01-25T14:41:48;2.90;1.40
316;DHT22;14128;48.686;9.738;2023-01-25T14:44:18;2.90;1.40
316;DHT22;14128;48.686;9.738;2023-01-25T14:46:46;2.80;1.40
316;DHT22;14128;48.686;9.738;2023-01-25T14:49:17;2.80;1.40
316;DHT22;14128;48.686;9.738;2023-01-25T14:52:01;2.70;1.40
316;DHT22;14128;48.686;9.738;2023-01-25T14:54:30;2.80;1.40
316;DHT22;14128;48.686;9.738;2023-01-25T14:56:59;2.80;1.40
316;DHT22;14128;48.686;9.738;2023-01-25T14:59:33;2.70;1.40
316;DHT22;14128;48.686;9.738;2023-01-25T15:02:03;2.70;1.40
316;DHT22;14128;48.686;9.738;2023-01-25T15:04:32;2.60;1.40
316;DHT22;14128;48.686;9.738;2023-01-25T15:06:59;2.50;1.40
316;DHT22;14128;48.686;9.738;2023-01-25T15:09:37;2.60;1.40
316;DHT22;14128;48.686;9.738;2023-01-25T15:12:22;2.60;1.40
316;DHT22;14128;48.686;9.738;2023-01-25T15:14:53;2.50;1.40
316;DHT22;14128;48.686;9.738;2023-01-25T15:17:39;2.50;1.40
316;DHT22;14128;48.686;9.738;2023-01-25T15:20:33;2.40;1.40
316;DHT22;14128;48.686;9.738;2023-01-25T15:23:04;2.40;1.40
316;DHT22;14128;48.686;9.738;2023-01-25T15:25:31;2.40;1.40
316;DHT22;14128;48.686;9.738;2023-01-25T15:27:58;2.30;1.40
316;DHT22;14128;48.686;9.738;2023-01-25T15:30:25;2.30;1.40
316;DHT22;14128;48.686;9.738;2023-01-25T15:32:52;2.30;1.40
316;DHT22;14128;48.686;9.738;2023-01-25T15:35:19;2.30;1.40
316;DHT22;14128;48.686;9.738;2023-01-25T15:37:48;2.30;1.40
316;DHT22;14128;48.686;9.738;2023-01-25T15:40:15;2.30;1.40
316;DHT22;14128;48.686;9.738;2023-01-25T15:42:42;2.20;1.40
316;DHT22;14128;48.686;9.738;2023-01-25T15:45:10;2.20;1.40
316;DHT22;14128;48.686;9.738;2023-01-25T15:47:37;2.10;1.40
316;DHT22;14128;48.686;9.738;2023-01-25T15:50:08;2.10;1.40
316;DHT22;14128;48.686;9.738;2023-01-25T15:52:39;2.10;1.40
316;DHT22;14128;48.686;9.738;2023-01-25T15:55:11;2.10;1.40
316;DHT22;14128;48.686;9.738;2023-01-25T15:57:38;2.00;1.40
316;DHT22;14128;48.686;9.738;2023-01-25T16:00:14;2.00;1.40
316;DHT22;14128;48.686;9.738;2023-01-25T16:02:41;2.00;1.40
316;DHT22;14128;48.686;9.738;2023-01-25T16:05:08;2.00;1.40
316;DHT22;14128;48.686;9.738;2023-01-25T16:07:37;1.90;1.40
316;DHT22;14128;48.686;9.738;2023-01-25T16:10:04;1.90;1.40
316;DHT22;14128;48.686;9.738;2023-01-25T16:12:33;1.90;1.40
316;DHT22;14128;48.686;9.738;2023-01-25T16:15:01;1.90;1.40
316;DHT22;14128;48.686;9.738;2023-01-25T16:17:27;1.90;1.40
316;DHT22;14128;48.686;9.738;2023-01-25T16:19:55;1.80;1.40
316;DHT22;14128;48.686;9.738;2023-01-25T16:22:21;1.80;1.40
316;DHT22;14128;48.686;9.738;2023-01-25T16:24:48;1.80;1.40
316;DHT22;14128;48.686;9.738;2023-01-25T16:27:17;1.80;1.40
316;DHT22;14128;48.686;9.738;2023-01-25T16:29:51;1.80;1.40
316;DHT22;14128;48.686;9.738;2023-01-25T16:32:18;1.80;1.40
316;DHT22;14128;48.686;9.738;2023-01-25T16:34:45;1.80;1.40
316;DHT22;14128;48.686;9.738;2023-01-25T16:37:13;1.80;1.40
316;DHT22;14128;48.686;9.738;2023-01-25T16:39:40;1.80;1.40
316;DHT22;14128;48.686;9.738;2023-01-25T16:42:08;1.80;1.40
316;DHT22;14128;48.686;9.738;2023-01-25T16:44:35;1.80;1.40
316;DHT22;14128;48.686;9.738;2023-01-25T16:47:04;1.70;1.40
316;DHT22;14128;48.686;9.738;2023-01-25T16:49:31;1.70;1.40
316;DHT22;14128;48.686;9.738;2023-01-25T16:52:01;1.70;1.40
316;DHT22;14128;48.686;9.738;2023-01-25T16:54:28;1.70;1.40
316;DHT22;14128;48.686;9.738;2023-01-25T16:56:54;1.70;1.40
316;DHT22;14128;48.686;9.738;2023-01-25T16:59:23;1.60;1.40
316;DHT22;14128;48.686;9.738;2023-01-25T17:01:50;1.60;1.40
316;DHT22;14128;48.686;9.738;2023-01-25T17:04:18;1.60;1.40
316;DHT22;14128;48.686;9.738;2023-01-25T17:06:47;1.60;1.40